createdAt,value
2016-08-07T00:00:29.873Z,1022
2016-08-07T00:01:29.881Z,1022.03
2016-08-07T00:02:29.885Z,1022.07
2016-08-07T00:03:29.891Z,1022.12
2016-08-07T00:04:29.897Z,1022.09
2016-08-07T00:05:29.904Z,1022.09
2016-08-07T00:06:29.908Z,1022.08
2016-08-07T00:07:29.915Z,1022.1
2016-08-07T00:08:29.921Z,1022.13
2016-08-07T00:09:29.926Z,1022.15
2016-08-07T00:10:29.932Z,1022.16
2016-08-07T00:11:29.937Z,1022.11
2016-08-07T00:12:29.950Z,1022.11
2016-08-07T00:13:29.948Z,1022.13
2016-08-07T00:14:29.955Z,1022.12
2016-08-07T00:15:29.960Z,1022.13
2016-08-07T00:16:29.967Z,1022.15
2016-08-07T00:17:29.972Z,1022.13
2016-08-07T00:18:29.979Z,1022.08
2016-08-07T00:19:29.983Z,1022.1
2016-08-07T00:20:29.989Z,1022.02
2016-08-07T00:21:29.994Z,1021.96
2016-08-07T00:22:30.001Z,1021.93
2016-08-07T00:23:30.016Z,1021.94
2016-08-07T00:24:30.012Z,1021.88
2016-08-07T00:25:30.016Z,1021.87
2016-08-07T00:26:30.026Z,1021.87
2016-08-07T00:27:30.030Z,1021.83
2016-08-07T00:28:30.033Z,1021.87
2016-08-07T00:29:30.040Z,1021.81
2016-08-07T00:30:30.047Z,1021.79
2016-08-07T00:31:30.051Z,1021.8
2016-08-07T00:32:30.056Z,1021.78
2016-08-07T00:33:30.063Z,1021.74
2016-08-07T00:34:30.069Z,1021.75
2016-08-07T00:35:30.074Z,1021.75
2016-08-07T00:36:30.080Z,1021.74
2016-08-07T00:37:30.086Z,1021.71
2016-08-07T00:38:30.091Z,1021.71
2016-08-07T00:39:30.097Z,1021.71
2016-08-07T00:40:30.103Z,1021.73
2016-08-07T00:41:30.109Z,1021.69
2016-08-07T00:42:30.113Z,1021.67
2016-08-07T00:43:30.121Z,1021.65
2016-08-07T00:44:30.125Z,1021.7
2016-08-07T00:45:30.192Z,1021.71
2016-08-07T00:46:30.137Z,1021.65
2016-08-07T00:47:30.143Z,1021.63
2016-08-07T00:48:30.150Z,1021.62
2016-08-07T00:49:30.155Z,1021.64
2016-08-07T00:50:30.160Z,1021.67
2016-08-07T00:51:30.167Z,1021.65
2016-08-07T00:52:30.173Z,1021.64
2016-08-07T00:53:30.178Z,1021.59
2016-08-07T00:54:30.184Z,1021.54
2016-08-07T00:55:30.193Z,1021.59
2016-08-07T00:56:30.195Z,1021.56
2016-08-07T00:57:30.200Z,1021.57
2016-08-07T00:58:30.207Z,1021.57
2016-08-07T00:59:30.211Z,1021.54
2016-08-07T01:00:30.218Z,1021.54
2016-08-07T01:01:30.223Z,1021.57
2016-08-07T01:02:30.239Z,1021.56
2016-08-07T01:03:30.236Z,1021.54
2016-08-07T01:04:30.245Z,1021.55
2016-08-07T01:05:30.246Z,1021.53
2016-08-07T01:06:30.259Z,1021.55
2016-08-07T01:07:30.258Z,1021.57
2016-08-07T01:08:30.263Z,1021.54
2016-08-07T01:09:30.270Z,1021.55
2016-08-07T01:10:30.278Z,1021.56
2016-08-07T01:11:30.358Z,1021.58
2016-08-07T01:12:30.287Z,1021.61
2016-08-07T01:13:30.301Z,1021.63
2016-08-07T01:14:30.299Z,1021.62
2016-08-07T01:15:30.313Z,1021.63
2016-08-07T01:16:30.309Z,1021.64
2016-08-07T01:17:30.316Z,1021.66
2016-08-07T01:18:30.322Z,1021.65
2016-08-07T01:19:30.325Z,1021.63
2016-08-07T01:20:30.331Z,1021.68
2016-08-07T01:21:30.343Z,1021.73
2016-08-07T01:22:30.344Z,1021.69
2016-08-07T01:23:30.349Z,1021.69
2016-08-07T01:24:30.357Z,1021.73
2016-08-07T01:25:30.361Z,1021.72
2016-08-07T01:26:30.367Z,1021.7
2016-08-07T01:27:30.374Z,1021.68
2016-08-07T01:28:30.380Z,1021.68
2016-08-07T01:29:30.386Z,1021.71
2016-08-07T01:30:30.391Z,1021.69
2016-08-07T01:31:30.396Z,1021.7
2016-08-07T01:32:30.402Z,1021.67
2016-08-07T01:33:30.408Z,1021.73
2016-08-07T01:34:30.421Z,1021.73
2016-08-07T01:35:30.421Z,1021.72
2016-08-07T01:36:30.428Z,1021.67
2016-08-07T01:37:30.432Z,1021.69
2016-08-07T01:38:30.438Z,1021.67
2016-08-07T01:39:30.461Z,1021.68
2016-08-07T01:40:30.451Z,1021.65
2016-08-07T01:41:30.455Z,1021.66
2016-08-07T01:42:30.461Z,1021.64
2016-08-07T01:43:30.467Z,1021.63
2016-08-07T01:44:30.472Z,1021.67
2016-08-07T01:45:30.479Z,1021.67
2016-08-07T01:46:30.484Z,1021.69
2016-08-07T01:47:30.491Z,1021.68
2016-08-07T01:48:30.495Z,1021.66
2016-08-07T01:49:30.501Z,1021.65
2016-08-07T01:50:30.507Z,1021.65
2016-08-07T01:51:30.515Z,1021.63
2016-08-07T01:52:30.518Z,1021.63
2016-08-07T01:53:30.524Z,1021.65
2016-08-07T01:54:30.531Z,1021.64
2016-08-07T01:55:30.544Z,1021.62
2016-08-07T01:56:30.541Z,1021.6
2016-08-07T01:57:30.547Z,1021.59
2016-08-07T01:58:30.553Z,1021.61
2016-08-07T01:59:30.557Z,1021.59
2016-08-07T02:00:30.564Z,1021.58
2016-08-07T02:01:30.575Z,1021.62
2016-08-07T02:02:30.576Z,1021.62
2016-08-07T02:03:30.581Z,1021.61
2016-08-07T02:04:30.595Z,1021.63
2016-08-07T02:05:30.593Z,1021.59
2016-08-07T02:06:30.598Z,1021.61
2016-08-07T02:07:30.604Z,1021.57
2016-08-07T02:08:30.609Z,1021.58
2016-08-07T02:09:30.616Z,1021.58
2016-08-07T02:10:30.622Z,1021.6
2016-08-07T02:11:30.626Z,1021.61
2016-08-07T02:12:30.631Z,1021.6
2016-08-07T02:13:30.638Z,1021.61
2016-08-07T02:14:30.644Z,1021.64
2016-08-07T02:15:30.651Z,1021.65
2016-08-07T02:16:30.656Z,1021.66
2016-08-07T02:17:30.661Z,1021.66
2016-08-07T02:18:30.666Z,1021.68
2016-08-07T02:19:30.671Z,1021.71
2016-08-07T02:20:30.679Z,1021.7
2016-08-07T02:21:30.683Z,1021.73
2016-08-07T02:22:30.712Z,1021.76
2016-08-07T02:23:30.695Z,1021.76
2016-08-07T02:24:30.702Z,1021.76
2016-08-07T02:25:30.707Z,1021.75
2016-08-07T02:26:30.713Z,1021.75
2016-08-07T02:27:30.719Z,1021.71
2016-08-07T02:28:30.723Z,1021.71
2016-08-07T02:29:30.729Z,1021.7
2016-08-07T02:30:30.736Z,1021.7
2016-08-07T02:31:30.742Z,1021.69
2016-08-07T02:32:30.746Z,1021.69
2016-08-07T02:33:30.752Z,1021.71
2016-08-07T02:34:30.758Z,1021.69
2016-08-07T02:35:30.765Z,1021.7
2016-08-07T02:36:30.786Z,1021.7
2016-08-07T02:37:30.776Z,1021.72
2016-08-07T02:38:30.781Z,1021.72
2016-08-07T02:39:30.785Z,1021.72
2016-08-07T02:40:30.793Z,1021.75
2016-08-07T02:41:30.799Z,1021.73
2016-08-07T02:42:30.804Z,1021.75
2016-08-07T02:43:30.809Z,1021.77
2016-08-07T02:44:30.828Z,1021.71
2016-08-07T02:45:30.821Z,1021.75
2016-08-07T02:46:30.826Z,1021.69
2016-08-07T02:47:30.832Z,1021.72
2016-08-07T02:48:30.838Z,1021.74
2016-08-07T02:49:30.857Z,1021.72
2016-08-07T02:50:30.849Z,1021.71
2016-08-07T02:52:30.860Z,1021.69
2016-08-07T02:53:30.866Z,1021.64
2016-08-07T02:54:30.871Z,1021.63
2016-08-07T02:55:30.878Z,1021.6
2016-08-07T02:56:30.883Z,1021.67
2016-08-07T02:57:30.890Z,1021.6
2016-08-07T02:58:30.911Z,1021.62
2016-08-07T02:59:30.911Z,1021.57
2016-08-07T03:00:30.906Z,1021.6
2016-08-07T03:01:30.911Z,1021.67
2016-08-07T03:02:30.917Z,1021.62
2016-08-07T03:03:30.923Z,1021.6
2016-08-07T03:04:30.930Z,1021.65
2016-08-07T03:05:30.934Z,1021.6
2016-08-07T03:07:30.946Z,1021.63
2016-08-07T03:08:30.952Z,1021.63
2016-08-07T03:09:30.956Z,1021.61
2016-08-07T03:10:30.964Z,1021.61
2016-08-07T03:11:30.969Z,1021.62
2016-08-07T03:12:30.976Z,1021.61
2016-08-07T03:13:30.982Z,1021.64
2016-08-07T03:14:30.988Z,1021.61
2016-08-07T03:15:30.992Z,1021.57
2016-08-07T03:16:30.998Z,1021.63
2016-08-07T03:17:31.007Z,1021.61
2016-08-07T03:18:31.010Z,1021.64
2016-08-07T03:19:31.015Z,1021.68
2016-08-07T03:20:31.022Z,1021.71
2016-08-07T03:22:31.033Z,1021.72
2016-08-07T03:23:31.038Z,1021.69
2016-08-07T03:24:31.043Z,1021.69
2016-08-07T03:25:31.051Z,1021.67
2016-08-07T03:26:31.055Z,1021.63
2016-08-07T03:27:31.061Z,1021.6
2016-08-07T03:28:31.066Z,1021.6
2016-08-07T03:29:31.074Z,1021.59
2016-08-07T03:30:31.078Z,1021.64
2016-08-07T03:31:31.083Z,1021.6
2016-08-07T03:32:31.090Z,1021.56
2016-08-07T03:33:31.097Z,1021.59
2016-08-07T03:34:31.099Z,1021.62
2016-08-07T03:35:31.105Z,1021.6
2016-08-07T03:37:31.118Z,1021.67
2016-08-07T03:38:31.122Z,1021.69
2016-08-07T03:39:31.130Z,1021.7
2016-08-07T03:40:31.135Z,1021.64
2016-08-07T03:41:31.141Z,1021.62
2016-08-07T03:42:31.277Z,1021.65
2016-08-07T03:43:31.153Z,1021.64
2016-08-07T03:44:31.157Z,1021.69
2016-08-07T03:45:31.162Z,1021.67
2016-08-07T03:46:31.169Z,1021.64
2016-08-07T03:47:31.174Z,1021.64
2016-08-07T03:48:31.179Z,1021.64
2016-08-07T03:49:31.186Z,1021.61
2016-08-07T03:50:31.190Z,1021.61
2016-08-07T03:52:31.201Z,1021.6
2016-08-07T03:53:31.209Z,1021.56
2016-08-07T03:54:31.215Z,1021.54
2016-08-07T03:55:31.220Z,1021.55
2016-08-07T03:56:31.225Z,1021.55
2016-08-07T03:57:31.231Z,1021.54
2016-08-07T03:58:31.235Z,1021.5
2016-08-07T03:59:31.242Z,1021.49
2016-08-07T04:00:31.250Z,1021.46
2016-08-07T04:01:31.253Z,1021.51
2016-08-07T04:02:31.260Z,1021.51
2016-08-07T04:03:31.265Z,1021.48
2016-08-07T04:04:31.269Z,1021.47
2016-08-07T04:05:31.276Z,1021.47
2016-08-07T04:06:31.283Z,1021.42
2016-08-07T04:07:31.287Z,1021.42
2016-08-07T04:08:31.293Z,1021.41
2016-08-07T04:09:31.301Z,1021.46
2016-08-07T04:10:31.305Z,1021.41
2016-08-07T04:11:31.327Z,1021.42
2016-08-07T04:12:31.315Z,1021.41
2016-08-07T04:13:31.322Z,1021.41
2016-08-07T04:14:31.326Z,1021.43
2016-08-07T04:15:31.338Z,1021.41
2016-08-07T04:16:31.346Z,1021.41
2016-08-07T04:17:31.345Z,1021.46
2016-08-07T04:18:31.473Z,1021.47
2016-08-07T04:19:31.354Z,1021.45
2016-08-07T04:20:31.362Z,1021.47
2016-08-07T04:21:31.366Z,1021.49
2016-08-07T04:22:31.376Z,1021.52
2016-08-07T04:23:31.378Z,1021.56
2016-08-07T04:24:31.552Z,1021.59
2016-08-07T04:25:31.388Z,1021.6
2016-08-07T04:26:31.397Z,1021.62
2016-08-07T04:27:31.400Z,1021.61
2016-08-07T04:28:31.409Z,1021.6
2016-08-07T04:29:31.412Z,1021.61
2016-08-07T04:30:31.417Z,1021.59
2016-08-07T04:31:31.423Z,1021.58
2016-08-07T04:32:31.430Z,1021.57
2016-08-07T04:33:31.435Z,1021.55
2016-08-07T04:34:31.441Z,1021.55
2016-08-07T04:35:31.649Z,1021.55
2016-08-07T04:36:31.452Z,1021.53
2016-08-07T04:37:31.456Z,1021.51
2016-08-07T04:38:31.463Z,1021.49
2016-08-07T04:39:31.469Z,1021.54
2016-08-07T04:40:31.474Z,1021.55
2016-08-07T04:41:31.480Z,1021.54
2016-08-07T04:42:31.491Z,1021.54
2016-08-07T04:43:31.491Z,1021.53
2016-08-07T04:44:31.497Z,1021.57
2016-08-07T04:45:31.504Z,1021.54
2016-08-07T04:46:31.510Z,1021.57
2016-08-07T04:47:31.514Z,1021.52
2016-08-07T04:48:33.434Z,1021.54
2016-08-07T04:49:31.527Z,1021.49
2016-08-07T04:50:31.532Z,1021.53
2016-08-07T04:51:31.537Z,1021.53
2016-08-07T04:52:31.543Z,1021.55
2016-08-07T04:53:31.549Z,1021.56
2016-08-07T04:54:31.553Z,1021.52
2016-08-07T04:55:31.560Z,1021.53
2016-08-07T04:56:31.567Z,1021.53
2016-08-07T04:57:31.609Z,1021.56
2016-08-07T04:58:31.581Z,1021.55
2016-08-07T04:59:31.583Z,1021.53
2016-08-07T05:00:31.588Z,1021.5
2016-08-07T05:01:31.595Z,1021.51
2016-08-07T05:02:31.599Z,1021.49
2016-08-07T05:03:31.604Z,1021.51
2016-08-07T05:04:31.617Z,1021.48
2016-08-07T05:05:31.617Z,1021.49
2016-08-07T05:06:31.621Z,1021.5
2016-08-07T05:07:31.628Z,1021.49
2016-08-07T05:08:31.635Z,1021.47
2016-08-07T05:09:31.639Z,1021.5
2016-08-07T05:10:31.644Z,1021.51
2016-08-07T05:11:31.652Z,1021.53
2016-08-07T05:12:31.659Z,1021.52
2016-08-07T05:13:31.661Z,1021.52
2016-08-07T05:14:31.668Z,1021.52
2016-08-07T05:15:31.674Z,1021.55
2016-08-07T05:16:31.735Z,1021.55
2016-08-07T05:17:31.838Z,1021.56
2016-08-07T05:18:31.691Z,1021.55
2016-08-07T05:19:31.820Z,1021.55
2016-08-07T05:20:31.700Z,1021.54
2016-08-07T05:21:31.708Z,1021.51
2016-08-07T05:22:31.713Z,1021.46
2016-08-07T05:23:31.719Z,1021.51
2016-08-07T05:24:31.724Z,1021.53
2016-08-07T05:25:31.742Z,1021.55
2016-08-07T05:26:31.735Z,1021.52
2016-08-07T05:27:31.740Z,1021.5
2016-08-07T05:28:31.748Z,1021.47
2016-08-07T05:29:31.752Z,1021.46
2016-08-07T05:30:31.758Z,1021.44
2016-08-07T05:31:31.764Z,1021.5
2016-08-07T05:32:31.776Z,1021.5
2016-08-07T05:33:31.775Z,1021.49
2016-08-07T05:34:31.781Z,1021.47
2016-08-07T05:35:31.787Z,1021.46
2016-08-07T05:36:31.793Z,1021.46
2016-08-07T05:37:31.798Z,1021.48
2016-08-07T05:38:31.808Z,1021.46
2016-08-07T05:39:31.860Z,1021.43
2016-08-07T05:40:31.815Z,1021.43
2016-08-07T05:41:31.822Z,1021.37
2016-08-07T05:42:31.826Z,1021.38
2016-08-07T05:43:31.831Z,1021.38
2016-08-07T05:44:31.850Z,1021.37
2016-08-07T05:45:31.849Z,1021.33
2016-08-07T05:46:31.850Z,1021.36
2016-08-07T05:47:31.855Z,1021.36
2016-08-07T05:48:31.861Z,1021.33
2016-08-07T05:49:31.870Z,1021.33
2016-08-07T05:50:31.872Z,1021.31
2016-08-07T05:51:31.878Z,1021.33
2016-08-07T05:52:31.885Z,1021.27
2016-08-07T05:53:31.891Z,1021.28
2016-08-07T05:54:31.895Z,1021.24
2016-08-07T05:55:31.902Z,1021.27
2016-08-07T05:56:31.907Z,1021.25
2016-08-07T05:57:31.911Z,1021.25
2016-08-07T05:58:31.918Z,1021.28
2016-08-07T05:59:31.925Z,1021.26
2016-08-07T06:00:31.929Z,1021.26
2016-08-07T06:01:31.938Z,1021.27
2016-08-07T06:02:31.942Z,1021.24
2016-08-07T06:03:31.946Z,1021.25
2016-08-07T06:04:31.954Z,1021.26
2016-08-07T06:05:32.022Z,1021.29
2016-08-07T06:06:31.963Z,1021.32
2016-08-07T06:07:31.970Z,1021.24
2016-08-07T06:08:31.976Z,1021.21
2016-08-07T06:09:31.981Z,1021.25
2016-08-07T06:10:31.987Z,1021.25
2016-08-07T06:11:31.997Z,1021.26
2016-08-07T06:12:33.425Z,1021.26
2016-08-07T06:13:32.004Z,1021.24
2016-08-07T06:14:32.011Z,1021.23
2016-08-07T06:15:32.015Z,1021.17
2016-08-07T06:16:32.020Z,1021.17
2016-08-07T06:17:32.027Z,1021.13
2016-08-07T06:18:32.034Z,1021.15
2016-08-07T06:19:32.039Z,1021.15
2016-08-07T06:20:32.045Z,1021.14
2016-08-07T06:21:32.054Z,1021.12
2016-08-07T06:22:32.057Z,1021.15
2016-08-07T06:23:32.062Z,1021.13
2016-08-07T06:24:32.068Z,1021.11
2016-08-07T06:25:32.760Z,1021.15
2016-08-07T06:26:32.080Z,1021.12
2016-08-07T06:27:32.086Z,1021.12
2016-08-07T06:28:32.091Z,1021.14
2016-08-07T06:29:32.096Z,1021.16
2016-08-07T06:30:32.105Z,1021.23
2016-08-07T06:31:32.115Z,1021.24
2016-08-07T06:32:32.117Z,1021.21
2016-08-07T06:33:32.119Z,1021.29
2016-08-07T06:34:32.125Z,1021.32
2016-08-07T06:35:32.151Z,1021.33
2016-08-07T06:36:32.137Z,1021.39
2016-08-07T06:37:32.143Z,1021.34
2016-08-07T06:38:32.148Z,1021.41
2016-08-07T06:39:32.155Z,1021.38
2016-08-07T06:40:32.159Z,1021.42
2016-08-07T06:41:32.166Z,1021.44
2016-08-07T06:42:32.172Z,1021.42
2016-08-07T06:43:32.179Z,1021.44
2016-08-07T06:44:32.184Z,1021.44
2016-08-07T06:45:32.188Z,1021.46
2016-08-07T06:46:32.439Z,1021.46
2016-08-07T06:47:32.229Z,1021.46
2016-08-07T06:48:32.211Z,1021.42
2016-08-07T06:49:32.228Z,1021.41
2016-08-07T06:50:32.217Z,1021.43
2016-08-07T06:51:32.224Z,1021.41
2016-08-07T06:53:32.234Z,1021.37
2016-08-07T06:54:32.240Z,1021.37
2016-08-07T06:55:32.246Z,1021.37
2016-08-07T06:56:32.252Z,1021.38
2016-08-07T06:57:32.260Z,1021.37
2016-08-07T06:58:32.265Z,1021.41
2016-08-07T06:59:32.269Z,1021.39
2016-08-07T07:00:32.284Z,1021.38
2016-08-07T07:01:32.285Z,1021.38
2016-08-07T07:02:32.287Z,1021.35
2016-08-07T07:03:32.305Z,1021.35
2016-08-07T07:04:32.299Z,1021.3
2016-08-07T07:05:32.304Z,1021.36
2016-08-07T07:06:32.314Z,1021.37
2016-08-07T07:08:32.324Z,1021.38
2016-08-07T07:09:32.326Z,1021.37
2016-08-07T07:10:32.330Z,1021.36
2016-08-07T07:11:32.338Z,1021.37
2016-08-07T07:12:32.341Z,1021.39
2016-08-07T07:13:32.348Z,1021.37
2016-08-07T07:14:32.355Z,1021.37
2016-08-07T07:15:32.362Z,1021.35
2016-08-07T07:16:32.365Z,1021.33
2016-08-07T07:17:32.371Z,1021.3
2016-08-07T07:18:32.380Z,1021.33
2016-08-07T07:19:32.384Z,1021.34
2016-08-07T07:20:32.393Z,1021.35
2016-08-07T07:21:32.415Z,1021.36
2016-08-07T07:23:32.406Z,1021.3
2016-08-07T07:24:32.414Z,1021.32
2016-08-07T07:25:32.417Z,1021.31
2016-08-07T07:26:32.427Z,1021.31
2016-08-07T07:27:32.429Z,1021.25
2016-08-07T07:28:32.438Z,1021.31
2016-08-07T07:29:32.439Z,1021.27
2016-08-07T07:30:32.446Z,1021.28
2016-08-07T07:31:32.484Z,1021.32
2016-08-07T07:32:32.456Z,1021.38
2016-08-07T07:33:32.488Z,1021.34
2016-08-07T07:34:32.469Z,1021.35
2016-08-07T07:35:32.475Z,1021.39
2016-08-07T07:36:32.479Z,1021.37
2016-08-07T07:38:32.492Z,1021.32
2016-08-07T07:39:32.498Z,1021.29
2016-08-07T07:40:32.503Z,1021.33
2016-08-07T07:41:32.509Z,1021.29
2016-08-07T07:42:32.515Z,1021.26
2016-08-07T07:43:32.531Z,1021.26
2016-08-07T07:44:32.526Z,1021.22
2016-08-07T07:45:32.533Z,1021.17
2016-08-07T07:46:32.536Z,1021.16
2016-08-07T07:47:32.544Z,1021.17
2016-08-07T08:01:59.664Z,1021
2016-08-07T08:02:59.665Z,1020.98
2016-08-07T08:03:59.670Z,1020.98
2016-08-07T08:04:59.675Z,1021
2016-08-07T08:05:59.695Z,1021
2016-08-07T08:06:59.688Z,1020.99
2016-08-07T08:07:59.695Z,1020.93
2016-08-07T08:08:59.698Z,1020.93
2016-08-07T08:09:59.722Z,1020.99
2016-08-07T08:10:59.711Z,1020.96
2016-08-07T08:11:59.718Z,1020.94
2016-08-07T08:12:59.725Z,1020.96
2016-08-07T08:13:59.728Z,1020.92
2016-08-07T08:14:59.734Z,1020.94
2016-08-07T08:15:59.740Z,1020.88
2016-08-07T08:16:59.746Z,1020.9
2016-08-07T08:17:59.751Z,1020.92
2016-08-07T08:18:59.756Z,1020.85
2016-08-07T08:19:59.763Z,1020.82
2016-08-07T08:20:59.769Z,1020.8
2016-08-07T08:21:59.773Z,1020.79
2016-08-07T08:22:59.779Z,1020.78
2016-08-07T08:23:59.790Z,1020.73
2016-08-07T08:24:59.791Z,1020.7
2016-08-07T08:25:59.797Z,1020.67
2016-08-07T08:26:59.803Z,1020.68
2016-08-07T08:27:59.808Z,1020.62
2016-08-07T08:28:59.814Z,1020.62
2016-08-07T08:29:59.820Z,1020.6
2016-08-07T08:30:59.826Z,1020.65
2016-08-07T08:31:59.831Z,1020.71
2016-08-07T08:32:59.837Z,1020.64
2016-08-07T08:33:59.843Z,1020.62
2016-08-07T08:34:59.847Z,1020.66
2016-08-07T08:35:59.854Z,1020.61
2016-08-07T08:36:59.860Z,1020.62
2016-08-07T08:38:59.872Z,1020.63
2016-08-07T08:39:59.927Z,1020.68
2016-08-07T08:40:59.882Z,1020.65
2016-08-07T08:41:59.888Z,1020.68
2016-08-07T08:42:59.895Z,1020.69
2016-08-07T08:43:59.900Z,1020.67
2016-08-07T08:44:59.906Z,1020.64
2016-08-07T08:45:59.912Z,1020.69
2016-08-07T08:46:59.916Z,1020.69
2016-08-07T08:47:59.923Z,1020.67
2016-08-07T08:48:59.929Z,1020.67
2016-08-07T08:49:59.936Z,1020.62
2016-08-07T08:50:59.941Z,1020.63
2016-08-07T08:51:59.947Z,1020.65
2016-08-07T08:53:59.958Z,1020.66
2016-08-07T08:54:59.963Z,1020.63
2016-08-07T08:55:59.970Z,1020.66
2016-08-07T08:56:59.976Z,1020.63
2016-08-07T08:57:59.980Z,1020.62
2016-08-07T08:58:59.987Z,1020.66
2016-08-07T08:59:59.993Z,1020.68
2016-08-07T09:00:59.999Z,1020.65
2016-08-07T09:02:00.004Z,1020.67
2016-08-07T09:03:00.011Z,1020.67
2016-08-07T09:04:00.015Z,1020.66
2016-08-07T09:05:00.022Z,1020.61
2016-08-07T09:06:00.028Z,1020.62
2016-08-07T09:07:00.038Z,1020.6
2016-08-07T09:09:00.046Z,1020.5
2016-08-07T09:10:00.055Z,1020.52
2016-08-07T09:11:00.057Z,1020.54
2016-08-07T09:12:00.063Z,1020.5
2016-08-07T09:13:00.070Z,1020.5
2016-08-07T09:14:00.075Z,1020.48
2016-08-07T09:15:00.081Z,1020.47
2016-08-07T09:16:00.089Z,1020.49
2016-08-07T09:17:00.093Z,1020.49
2016-08-07T09:18:00.100Z,1020.5
2016-08-07T09:19:00.104Z,1020.52
2016-08-07T09:20:00.110Z,1020.49
2016-08-07T09:21:00.117Z,1020.45
2016-08-07T09:22:00.122Z,1020.41
2016-08-07T09:23:00.128Z,1020.4
2016-08-07T09:24:00.134Z,1020.36
2016-08-07T09:25:00.139Z,1020.32
2016-08-07T09:26:00.145Z,1020.3
2016-08-07T09:27:00.150Z,1020.33
2016-08-07T09:28:00.157Z,1020.31
2016-08-07T09:29:00.171Z,1020.29
2016-08-07T09:30:00.170Z,1020.38
2016-08-07T09:31:00.174Z,1020.33
2016-08-07T09:32:00.179Z,1020.35
2016-08-07T09:33:00.186Z,1020.3
2016-08-07T09:34:00.193Z,1020.31
2016-08-07T09:35:00.199Z,1020.29
2016-08-07T09:36:00.203Z,1020.24
2016-08-07T09:37:00.210Z,1020.22
2016-08-07T09:38:00.214Z,1020.19
2016-08-07T09:39:00.221Z,1020.21
2016-08-07T09:40:00.277Z,1020.19
2016-08-07T09:41:00.233Z,1020.19
2016-08-07T09:42:00.244Z,1020.11
2016-08-07T09:43:00.243Z,1020.16
2016-08-07T09:44:00.251Z,1020.12
2016-08-07T09:45:00.258Z,1020.12
2016-08-07T09:46:00.262Z,1020.13
2016-08-07T09:47:00.269Z,1020.14
2016-08-07T09:48:00.275Z,1020.09
2016-08-07T09:49:00.280Z,1020.09
2016-08-07T09:50:00.287Z,1020.08
2016-08-07T09:51:00.293Z,1020.07
2016-08-07T09:52:00.297Z,1020.07
2016-08-07T09:53:00.314Z,1020.06
2016-08-07T09:54:00.309Z,1020.05
2016-08-07T09:55:00.319Z,1020.01
2016-08-07T09:56:00.322Z,1019.96
2016-08-07T09:57:00.326Z,1019.94
2016-08-07T09:58:00.333Z,1019.94
2016-08-07T09:59:00.344Z,1019.95
2016-08-07T10:00:00.344Z,1019.94
2016-08-07T10:01:00.352Z,1019.91
2016-08-07T10:02:00.357Z,1019.88
2016-08-07T10:03:00.362Z,1019.88
2016-08-07T10:04:00.369Z,1019.87
2016-08-07T10:05:00.375Z,1019.87
2016-08-07T10:06:00.381Z,1019.88
2016-08-07T10:07:00.387Z,1019.85
2016-08-07T10:08:00.393Z,1019.89
2016-08-07T10:09:00.400Z,1019.85
2016-08-07T10:10:00.403Z,1019.89
2016-08-07T10:11:00.411Z,1019.83
2016-08-07T10:12:00.416Z,1019.83
2016-08-07T10:13:00.421Z,1019.86
2016-08-07T10:14:00.428Z,1019.86
2016-08-07T10:15:00.433Z,1019.83
2016-08-07T10:16:00.453Z,1019.84
2016-08-07T10:17:00.446Z,1019.76
2016-08-07T10:18:00.452Z,1019.75
2016-08-07T10:19:00.457Z,1019.73
2016-08-07T10:20:00.463Z,1019.75
2016-08-07T10:21:00.470Z,1019.79
2016-08-07T10:22:00.474Z,1019.72
2016-08-07T10:23:00.483Z,1019.71
2016-08-07T10:24:00.490Z,1019.68
2016-08-07T10:25:00.492Z,1019.66
2016-08-07T10:26:00.498Z,1019.58
2016-08-07T10:27:00.504Z,1019.57
2016-08-07T10:28:00.510Z,1019.56
2016-08-07T10:29:00.518Z,1019.53
2016-08-07T10:30:00.520Z,1019.55
2016-08-07T10:31:00.528Z,1019.52
2016-08-07T10:32:00.534Z,1019.53
2016-08-07T10:33:00.538Z,1019.5
2016-08-07T10:34:00.544Z,1019.53
2016-08-07T10:35:00.551Z,1019.55
2016-08-07T10:36:00.558Z,1019.52
2016-08-07T10:37:00.562Z,1019.53
2016-08-07T10:38:00.570Z,1019.5
2016-08-07T10:39:00.574Z,1019.51
2016-08-07T10:40:00.581Z,1019.48
2016-08-07T10:41:00.586Z,1019.48
2016-08-07T10:42:00.594Z,1019.47
2016-08-07T10:43:00.600Z,1019.49
2016-08-07T10:44:00.604Z,1019.48
2016-08-07T10:45:00.612Z,1019.46
2016-08-07T10:46:00.618Z,1019.49
2016-08-07T10:47:00.623Z,1019.45
2016-08-07T10:48:00.634Z,1019.46
2016-08-07T10:49:00.635Z,1019.48
2016-08-07T10:50:00.640Z,1019.46
2016-08-07T10:51:00.647Z,1019.43
2016-08-07T10:52:00.653Z,1019.42
2016-08-07T10:53:00.659Z,1019.43
2016-08-07T10:54:00.666Z,1019.41
2016-08-07T10:55:00.669Z,1019.44
2016-08-07T10:56:00.677Z,1019.41
2016-08-07T10:57:00.687Z,1019.4
2016-08-07T10:58:00.688Z,1019.39
2016-08-07T10:59:00.694Z,1019.36
2016-08-07T11:00:00.701Z,1019.36
2016-08-07T11:01:00.710Z,1019.33
2016-08-07T11:02:00.711Z,1019.35
2016-08-07T11:03:00.717Z,1019.33
2016-08-07T11:04:00.723Z,1019.28
2016-08-07T11:05:00.728Z,1019.25
2016-08-07T11:06:00.735Z,1019.27
2016-08-07T11:07:00.741Z,1019.23
2016-08-07T11:08:00.745Z,1019.2
2016-08-07T11:09:00.753Z,1019.15
2016-08-07T11:10:00.759Z,1019.11
2016-08-07T11:11:00.764Z,1019.01
2016-08-07T11:12:00.772Z,1019.04
2016-08-07T11:13:00.776Z,1019
2016-08-07T11:14:00.783Z,1019.01
2016-08-07T11:15:00.789Z,1018.97
2016-08-07T11:16:00.795Z,1018.91
2016-08-07T11:17:00.800Z,1018.93
2016-08-07T11:18:00.817Z,1018.95
2016-08-07T11:19:00.811Z,1018.92
2016-08-07T11:20:00.818Z,1018.95
2016-08-07T11:21:00.824Z,1018.93
2016-08-07T11:22:00.830Z,1018.96
2016-08-07T11:23:00.839Z,1018.91
2016-08-07T11:24:00.842Z,1018.92
2016-08-07T11:25:00.846Z,1018.95
2016-08-07T11:26:00.855Z,1018.9
2016-08-07T11:27:00.860Z,1018.89
2016-08-07T11:28:00.865Z,1018.83
2016-08-07T11:29:00.870Z,1018.82
2016-08-07T11:30:00.878Z,1018.82
2016-08-07T11:31:00.883Z,1018.78
2016-08-07T11:32:00.892Z,1018.75
2016-08-07T11:33:00.894Z,1018.77
2016-08-07T11:34:00.901Z,1018.71
2016-08-07T11:35:00.905Z,1018.75
2016-08-07T11:36:00.911Z,1018.7
2016-08-07T11:37:00.919Z,1018.66
2016-08-07T11:38:00.926Z,1018.63
2016-08-07T11:39:00.930Z,1018.66
2016-08-07T11:40:00.936Z,1018.66
2016-08-07T11:41:00.943Z,1018.65
2016-08-07T11:42:00.952Z,1018.58
2016-08-07T11:43:00.953Z,1018.61
2016-08-07T11:44:00.960Z,1018.55
2016-08-07T11:45:00.967Z,1018.55
2016-08-07T11:46:00.972Z,1018.56
2016-08-07T11:47:00.977Z,1018.57
2016-08-07T11:48:00.984Z,1018.57
2016-08-07T11:49:00.992Z,1018.57
2016-08-07T11:50:00.994Z,1018.54
2016-08-07T11:51:01.001Z,1018.58
2016-08-07T11:52:01.009Z,1018.59
2016-08-07T11:53:01.013Z,1018.61
2016-08-07T11:54:01.019Z,1018.6
2016-08-07T11:55:01.027Z,1018.56
2016-08-07T11:56:01.030Z,1018.58
2016-08-07T11:57:01.037Z,1018.5
2016-08-07T11:58:01.048Z,1018.55
2016-08-07T11:59:01.049Z,1018.52
2016-08-07T12:00:01.056Z,1018.54
2016-08-07T12:01:01.060Z,1018.55
2016-08-07T12:02:01.068Z,1018.47
2016-08-07T12:03:01.072Z,1018.5
2016-08-07T12:04:01.078Z,1018.46
2016-08-07T12:05:01.085Z,1018.45
2016-08-07T12:06:01.090Z,1018.47
2016-08-07T12:07:01.097Z,1018.47
2016-08-07T12:08:01.103Z,1018.49
2016-08-07T12:09:01.107Z,1018.48
2016-08-07T12:10:01.115Z,1018.46
2016-08-07T12:11:01.122Z,1018.45
2016-08-07T12:12:01.127Z,1018.45
2016-08-07T12:13:01.133Z,1018.46
2016-08-07T12:14:01.138Z,1018.43
2016-08-07T12:15:01.145Z,1018.43
2016-08-07T12:16:01.157Z,1018.33
2016-08-07T12:17:01.157Z,1018.37
2016-08-07T12:18:01.171Z,1018.33
2016-08-07T12:19:01.169Z,1018.32
2016-08-07T12:20:01.175Z,1018.3
2016-08-07T12:21:01.181Z,1018.33
2016-08-07T12:22:01.189Z,1018.32
2016-08-07T12:23:01.193Z,1018.33
2016-08-07T12:25:01.204Z,1018.24
2016-08-07T12:26:01.211Z,1018.29
2016-08-07T12:27:01.217Z,1018.32
2016-08-07T12:28:01.222Z,1018.31
2016-08-07T12:29:01.229Z,1018.27
2016-08-07T12:30:01.236Z,1018.25
2016-08-07T12:31:01.241Z,1018.23
2016-08-07T12:32:01.248Z,1018.2
2016-08-07T12:33:01.253Z,1018.27
2016-08-07T12:34:01.259Z,1018.18
2016-08-07T12:35:01.265Z,1018.2